Wye River — WDE3583 — position and weather

sailwx.info

Track history (hours):
 
Tides and Currents Weather Stations Pressure Air Temp Water Temp Dewpoint Dewpoint Depression Visibility Wind Speed Wind Dir Waves Ship Positions

Wye River

Owner: Vane Line Bunkering, Inc., Baltimore, MD. More information available from US FCC via Universal Licensing System and Coast Guard Vessel Documentation Center.

Last reported at 2015-Feb-26 04:24 UTC. Time now 2015-Mar-05 18:45 UTC.
Position N 30°17' W 087°03'.

Length 30 m; draft 4.3 m.

Type: Towing. MMSI: 367341190.

Date/timePositionNaut miles runAvg speedWind from/ knotsBaromVisibWave heightAir tempDewpointWater temp
2015-Feb-26 04:24N 30°17' W 087°03'8 9.6
2015-Feb-26 03:33N 30°19' W 086°54'1410.5
2015-Feb-26 02:13N 30°19' W 086°37'710.6
2015-Feb-26 01:33N 30°18' W 086°29'258 7.1
2015-Feb-24 13:13N 27°39' W 082°38'2 0.1
2015-Feb-23 18:05N 27°40' W 082°37'6 9.4
2015-Feb-23 17:23N 27°45' W 082°32'7 8.5
2015-Feb-23 16:33N 27°50' W 082°27'5 5.1
2015-Feb-23 15:33N 27°55' W 082°27'1 0.9
2015-Feb-23 14:33N 27°56' W 082°26'0 0.0
2015-Feb-23 13:33N 27°56' W 082°26'0 0.0
2015-Feb-23 12:33N 27°56' W 082°26'0 0.0
2015-Feb-23 11:33N 27°56' W 082°26'0 0.0
2015-Feb-23 10:33N 27°56' W 082°26'0 0.0
2015-Feb-23 09:33N 27°56' W 082°26'0 0.0
2015-Feb-23 08:33N 27°56' W 082°26'0 0.0
2015-Feb-23 07:33N 27°56' W 082°26'0 0.0
2015-Feb-23 06:33N 27°56' W 082°26'0 0.0
2015-Feb-23 05:33N 27°56' W 082°26'0 0.0
2015-Feb-23 04:33N 27°56' W 082°26'0 0.0
2015-Feb-23 03:33N 27°56' W 082°26'0 0.0
2015-Feb-23 02:33N 27°56' W 082°26'0 0.0
2015-Feb-23 01:33N 27°56' W 082°26'0 0.0
2015-Feb-23 00:33N 27°56' W 082°26'0 0.0
2015-Feb-22 23:33N 27°56' W 082°26'0 0.0
2015-Feb-22 22:33N 27°56' W 082°26'1 1.0
2015-Feb-22 21:33N 27°55' W 082°27'1 1.1
2015-Feb-22 20:33N 27°54' W 082°26'6 6.0
2015-Feb-22 19:33N 27°49' W 082°27'5 4.8
2015-Feb-22 18:33N 27°48' W 082°33'0 0.0
2015-Feb-22 17:33N 27°48' W 082°33'0 0.1
2015-Feb-22 16:33N 27°48' W 082°33'0 0.0
2015-Feb-22 15:33N 27°48' W 082°33'0 0.0
2015-Feb-22 14:33N 27°48' W 082°33'0 0.0
2015-Feb-22 13:33N 27°48' W 082°33'0 0.0
2015-Feb-22 12:33N 27°48' W 082°33'0 0.0
2015-Feb-22 11:32N 27°48' W 082°33'0 0.0
2015-Feb-22 09:33N 27°48' W 082°33'3 2.7
2015-Feb-22 08:33N 27°45' W 082°31'  
Track history (hours):
 
Tides and Currents Weather Stations Pressure Air Temp Water Temp Dewpoint Dewpoint Depression Visibility Wind Speed Wind Dir Waves Ship Positions

Wye River

Owner: Vane Line Bunkering, Inc., Baltimore, MD. More information available from US FCC via Universal Licensing System and Coast Guard Vessel Documentation Center.

Last reported at 2015-Feb-26 04:24 UTC. Time now 2015-Mar-05 18:45 UTC.
Position N 30°17' W 087°03'.

Length 30 m; draft 4.3 m.

Type: Towing. MMSI: 367341190.

Date/timePositionNaut miles runAvg speedWind from/ knotsBaromVisibWave heightAir tempDewpointWater temp
2015-Feb-26 04:24N 30°17' W 087°03'8 9.6
2015-Feb-26 03:33N 30°19' W 086°54'1410.5
2015-Feb-26 02:13N 30°19' W 086°37'710.6
2015-Feb-26 01:33N 30°18' W 086°29'258 7.1
2015-Feb-24 13:13N 27°39' W 082°38'2 0.1
2015-Feb-23 18:05N 27°40' W 082°37'6 9.4
2015-Feb-23 17:23N 27°45' W 082°32'7 8.5
2015-Feb-23 16:33N 27°50' W 082°27'5 5.1
2015-Feb-23 15:33N 27°55' W 082°27'1 0.9
2015-Feb-23 14:33N 27°56' W 082°26'0 0.0
2015-Feb-23 13:33N 27°56' W 082°26'0 0.0
2015-Feb-23 12:33N 27°56' W 082°26'0 0.0
2015-Feb-23 11:33N 27°56' W 082°26'0 0.0
2015-Feb-23 10:33N 27°56' W 082°26'0 0.0
2015-Feb-23 09:33N 27°56' W 082°26'0 0.0
2015-Feb-23 08:33N 27°56' W 082°26'0 0.0
2015-Feb-23 07:33N 27°56' W 082°26'0 0.0
2015-Feb-23 06:33N 27°56' W 082°26'0 0.0
2015-Feb-23 05:33N 27°56' W 082°26'0 0.0
2015-Feb-23 04:33N 27°56' W 082°26'0 0.0
2015-Feb-23 03:33N 27°56' W 082°26'0 0.0
2015-Feb-23 02:33N 27°56' W 082°26'0 0.0
2015-Feb-23 01:33N 27°56' W 082°26'0 0.0
2015-Feb-23 00:33N 27°56' W 082°26'0 0.0
2015-Feb-22 23:33N 27°56' W 082°26'0 0.0
2015-Feb-22 22:33N 27°56' W 082°26'1 1.0
2015-Feb-22 21:33N 27°55' W 082°27'1 1.1
2015-Feb-22 20:33N 27°54' W 082°26'6 6.0
2015-Feb-22 19:33N 27°49' W 082°27'5 4.8
2015-Feb-22 18:33N 27°48' W 082°33'0 0.0
2015-Feb-22 17:33N 27°48' W 082°33'0 0.1
2015-Feb-22 16:33N 27°48' W 082°33'0 0.0
2015-Feb-22 15:33N 27°48' W 082°33'0 0.0
2015-Feb-22 14:33N 27°48' W 082°33'0 0.0
2015-Feb-22 13:33N 27°48' W 082°33'0 0.0
2015-Feb-22 12:33N 27°48' W 082°33'0 0.0
2015-Feb-22 11:32N 27°48' W 082°33'0 0.0
2015-Feb-22 09:33N 27°48' W 082°33'3 2.7
2015-Feb-22 08:33N 27°45' W 082°31'  

Dump ship's entire track history